sensor_id;sensor_type;location;lat;lon;timestamp;pressure;altitude;pressure_sealevel;temperature;humidity
9746;BME280;4912;50.836;12.958;2023-11-21T00:01:28;97123.78;;;10.17;100.00
9746;BME280;4912;50.836;12.958;2023-11-21T00:04:00;97130.84;;;10.18;100.00
9746;BME280;4912;50.836;12.958;2023-11-21T00:06:31;97125.56;;;10.20;100.00
9746;BME280;4912;50.836;12.958;2023-11-21T00:09:03;97127.78;;;10.16;100.00
9746;BME280;4912;50.836;12.958;2023-11-21T00:11:36;97132.22;;;10.29;100.00
9746;BME280;4912;50.836;12.958;2023-11-21T00:14:09;97128.22;;;10.30;100.00
9746;BME280;4912;50.836;12.958;2023-11-21T00:16:47;97127.72;;;10.31;100.00
9746;BME280;4912;50.836;12.958;2023-11-21T00:19:20;97137.47;;;10.26;100.00
9746;BME280;4912;50.836;12.958;2023-11-21T00:21:52;97132.50;;;10.31;100.00
9746;BME280;4912;50.836;12.958;2023-11-21T00:24:29;97129.59;;;10.40;100.00
9746;BME280;4912;50.836;12.958;2023-11-21T00:27:03;97132.91;;;10.44;100.00
9746;BME280;4912;50.836;12.958;2023-11-21T00:29:42;97144.13;;;10.35;100.00
9746;BME280;4912;50.836;12.958;2023-11-21T00:32:17;97140.38;;;10.38;100.00
9746;BME280;4912;50.836;12.958;2023-11-21T00:34:53;97141.34;;;10.35;100.00
9746;BME280;4912;50.836;12.958;2023-11-21T00:37:26;97140.53;;;10.29;100.00
9746;BME280;4912;50.836;12.958;2023-11-21T00:39:59;97138.78;;;10.31;100.00
9746;BME280;4912;50.836;12.958;2023-11-21T00:42:36;97143.56;;;10.31;100.00
9746;BME280;4912;50.836;12.958;2023-11-21T00:45:10;97150.34;;;10.30;100.00
9746;BME280;4912;50.836;12.958;2023-11-21T00:47:46;97142.81;;;10.30;100.00
9746;BME280;4912;50.836;12.958;2023-11-21T00:50:21;97149.28;;;10.27;100.00
9746;BME280;4912;50.836;12.958;2023-11-21T00:52:53;97149.28;;;10.27;100.00
9746;BME280;4912;50.836;12.958;2023-11-21T00:55:26;97157.41;;;10.31;100.00
9746;BME280;4912;50.836;12.958;2023-11-21T00:57:59;97158.03;;;10.40;100.00
9746;BME280;4912;50.836;12.958;2023-11-21T01:00:34;97152.28;;;10.44;100.00
9746;BME280;4912;50.836;12.958;2023-11-21T01:03:07;97155.13;;;10.49;100.00
9746;BME280;4912;50.836;12.958;2023-11-21T01:05:38;97160.03;;;10.40;100.00
9746;BME280;4912;50.836;12.958;2023-11-21T01:08:12;97156.72;;;10.36;100.00
9746;BME280;4912;50.836;12.958;2023-11-21T01:10:45;97158.34;;;10.27;100.00
9746;BME280;4912;50.836;12.958;2023-11-21T01:13:15;97159.03;;;10.22;100.00
9746;BME280;4912;50.836;12.958;2023-11-21T01:15:52;97155.63;;;10.13;100.00
9746;BME280;4912;50.836;12.958;2023-11-21T01:18:27;97159.25;;;10.04;100.00
9746;BME280;4912;50.836;12.958;2023-11-21T01:21:01;97161.75;;;9.88;100.00
9746;BME280;4912;50.836;12.958;2023-11-21T01:23:31;97170.13;;;9.78;100.00
9746;BME280;4912;50.836;12.958;2023-11-21T01:26:08;97163.00;;;9.86;100.00
9746;BME280;4912;50.836;12.958;2023-11-21T01:28:39;97161.06;;;9.93;100.00
9746;BME280;4912;50.836;12.958;2023-11-21T01:31:13;97163.53;;;9.91;100.00
9746;BME280;4912;50.836;12.958;2023-11-21T01:33:52;97158.69;;;9.85;100.00
9746;BME280;4912;50.836;12.958;2023-11-21T01:36:31;97154.03;;;9.92;100.00
9746;BME280;4912;50.836;12.958;2023-11-21T01:39:08;97158.78;;;9.91;100.00
9746;BME280;4912;50.836;12.958;2023-11-21T01:41:47;97155.94;;;10.00;100.00
9746;BME280;4912;50.836;12.958;2023-11-21T01:44:20;97154.69;;;10.01;100.00
9746;BME280;4912;50.836;12.958;2023-11-21T01:46:57;97152.25;;;10.09;100.00
9746;BME280;4912;50.836;12.958;2023-11-21T01:49:33;97148.09;;;9.99;100.00
9746;BME280;4912;50.836;12.958;2023-11-21T01:52:07;97144.41;;;9.87;100.00
9746;BME280;4912;50.836;12.958;2023-11-21T01:54:47;97153.00;;;9.74;100.00
9746;BME280;4912;50.836;12.958;2023-11-21T01:57:25;97156.63;;;9.80;100.00
9746;BME280;4912;50.836;12.958;2023-11-21T01:59:59;97155.56;;;9.78;100.00
9746;BME280;4912;50.836;12.958;2023-11-21T02:02:46;97164.53;;;9.73;100.00
9746;BME280;4912;50.836;12.958;2023-11-21T02:05:29;97167.56;;;9.75;100.00
9746;BME280;4912;50.836;12.958;2023-11-21T02:08:04;97162.53;;;9.88;100.00
9746;BME280;4912;50.836;12.958;2023-11-21T02:10:48;97154.09;;;9.97;100.00
9746;BME280;4912;50.836;12.958;2023-11-21T02:13:19;97171.66;;;9.94;100.00
9746;BME280;4912;50.836;12.958;2023-11-21T02:15:49;97163.84;;;9.78;100.00
9746;BME280;4912;50.836;12.958;2023-11-21T02:18:30;97165.03;;;9.71;100.00
9746;BME280;4912;50.836;12.958;2023-11-21T02:21:04;97169.47;;;9.69;100.00
9746;BME280;4912;50.836;12.958;2023-11-21T02:23:44;97172.91;;;9.64;100.00
9746;BME280;4912;50.836;12.958;2023-11-21T02:26:16;97168.81;;;9.74;100.00
9746;BME280;4912;50.836;12.958;2023-11-21T02:28:59;97157.75;;;9.74;100.00
9746;BME280;4912;50.836;12.958;2023-11-21T02:31:32;97163.28;;;9.74;100.00
9746;BME280;4912;50.836;12.958;2023-11-21T02:34:13;97165.78;;;9.72;100.00
9746;BME280;4912;50.836;12.958;2023-11-21T02:36:51;97172.91;;;9.64;100.00
9746;BME280;4912;50.836;12.958;2023-11-21T02:39:28;97177.78;;;9.54;100.00
9746;BME280;4912;50.836;12.958;2023-11-21T02:42:09;97176.25;;;9.53;100.00
9746;BME280;4912;50.836;12.958;2023-11-21T02:44:39;97171.28;;;9.42;100.00
9746;BME280;4912;50.836;12.958;2023-11-21T02:47:13;97174.25;;;9.39;100.00
9746;BME280;4912;50.836;12.958;2023-11-21T02:49:50;97182.91;;;9.32;100.00
9746;BME280;4912;50.836;12.958;2023-11-21T02:52:27;97181.56;;;9.27;100.00
9746;BME280;4912;50.836;12.958;2023-11-21T02:55:06;97189.56;;;9.25;100.00
9746;BME280;4912;50.836;12.958;2023-11-21T02:57:38;97184.44;;;9.33;100.00
9746;BME280;4912;50.836;12.958;2023-11-21T03:00:14;97181.19;;;9.34;100.00
9746;BME280;4912;50.836;12.958;2023-11-21T03:02:55;97185.28;;;9.39;100.00
9746;BME280;4912;50.836;12.958;2023-11-21T03:05:32;97180.34;;;9.28;100.00
9746;BME280;4912;50.836;12.958;2023-11-21T03:08:10;97184.22;;;9.22;100.00
9746;BME280;4912;50.836;12.958;2023-11-21T03:10:52;97177.19;;;9.21;100.00
9746;BME280;4912;50.836;12.958;2023-11-21T03:13:26;97178.03;;;9.27;100.00
9746;BME280;4912;50.836;12.958;2023-11-21T03:16:00;97181.00;;;9.23;100.00
9746;BME280;4912;50.836;12.958;2023-11-21T03:18:31;97181.56;;;9.13;100.00
9746;BME280;4912;50.836;12.958;2023-11-21T03:21:03;97191.44;;;9.19;100.00
9746;BME280;4912;50.836;12.958;2023-11-21T03:23:36;97189.75;;;9.22;100.00
9746;BME280;4912;50.836;12.958;2023-11-21T03:26:16;97189.78;;;9.36;100.00
9746;BME280;4912;50.836;12.958;2023-11-21T03:28:48;97187.59;;;9.40;100.00
9746;BME280;4912;50.836;12.958;2023-11-21T03:31:23;97184.25;;;9.36;100.00
9746;BME280;4912;50.836;12.958;2023-11-21T03:33:56;97184.72;;;9.35;100.00
9746;BME280;4912;50.836;12.958;2023-11-21T03:36:33;97184.63;;;9.29;100.00
9746;BME280;4912;50.836;12.958;2023-11-21T03:39:06;97184.13;;;9.31;100.00
9746;BME280;4912;50.836;12.958;2023-11-21T03:41:46;97181.00;;;9.38;100.00
9746;BME280;4912;50.836;12.958;2023-11-21T03:44:17;97189.47;;;9.34;100.00
9746;BME280;4912;50.836;12.958;2023-11-21T03:47:05;97189.19;;;9.32;100.00
9746;BME280;4912;50.836;12.958;2023-11-21T03:49:36;97198.88;;;9.28;100.00
9746;BME280;4912;50.836;12.958;2023-11-21T03:52:10;97196.13;;;9.28;100.00
9746;BME280;4912;50.836;12.958;2023-11-21T03:54:47;97203.94;;;9.29;100.00
9746;BME280;4912;50.836;12.958;2023-11-21T03:57:23;97197.00;;;9.34;100.00
9746;BME280;4912;50.836;12.958;2023-11-21T03:59:58;97195.38;;;9.27;100.00
9746;BME280;4912;50.836;12.958;2023-11-21T04:02:38;97202.72;;;9.30;100.00
9746;BME280;4912;50.836;12.958;2023-11-21T04:05:11;97200.06;;;9.36;100.00
9746;BME280;4912;50.836;12.958;2023-11-21T04:07:42;97195.66;;;9.44;100.00
9746;BME280;4912;50.836;12.958;2023-11-21T04:10:15;97207.28;;;9.33;100.00
9746;BME280;4912;50.836;12.958;2023-11-21T04:12:51;97193.38;;;9.42;100.00
9746;BME280;4912;50.836;12.958;2023-11-21T04:15:23;97208.25;;;9.60;100.00
9746;BME280;4912;50.836;12.958;2023-11-21T04:17:54;97197.88;;;9.69;100.00
9746;BME280;4912;50.836;12.958;2023-11-21T04:20:27;97209.00;;;9.75;100.00
9746;BME280;4912;50.836;12.958;2023-11-21T04:23:03;97207.41;;;9.83;100.00
9746;BME280;4912;50.836;12.958;2023-11-21T04:25:36;97213.78;;;9.89;100.00
9746;BME280;4912;50.836;12.958;2023-11-21T04:28:12;97211.88;;;9.95;100.00
9746;BME280;4912;50.836;12.958;2023-11-21T04:30:45;97215.47;;;10.01;100.00
9746;BME280;4912;50.836;12.958;2023-11-21T04:33:18;97217.97;;;9.99;100.00
9746;BME280;4912;50.836;12.958;2023-11-21T04:35:55;97223.78;;;10.01;100.00
9746;BME280;4912;50.836;12.958;2023-11-21T04:38:26;97224.44;;;9.96;100.00
9746;BME280;4912;50.836;12.958;2023-11-21T04:40:59;97229.31;;;9.72;100.00
9746;BME280;4912;50.836;12.958;2023-11-21T04:43:35;97224.44;;;9.67;100.00
9746;BME280;4912;50.836;12.958;2023-11-21T04:46:09;97234.16;;;9.62;100.00
9746;BME280;4912;50.836;12.958;2023-11-21T04:48:39;97225.97;;;9.68;100.00
9746;BME280;4912;50.836;12.958;2023-11-21T04:51:11;97229.19;;;9.66;100.00
9746;BME280;4912;50.836;12.958;2023-11-21T04:53:41;97225.78;;;9.71;100.00
9746;BME280;4912;50.836;12.958;2023-11-21T04:56:13;97232.16;;;9.63;100.00
9746;BME280;4912;50.836;12.958;2023-11-21T04:58:47;97233.66;;;9.49;100.00
9746;BME280;4912;50.836;12.958;2023-11-21T05:01:17;97236.97;;;9.38;100.00
9746;BME280;4912;50.836;12.958;2023-11-21T05:03:48;97234.69;;;9.37;100.00
9746;BME280;4912;50.836;12.958;2023-11-21T05:06:20;97227.47;;;9.39;100.00
9746;BME280;4912;50.836;12.958;2023-11-21T05:08:50;97238.22;;;9.37;100.00
9746;BME280;4912;50.836;12.958;2023-11-21T05:11:25;97237.72;;;9.24;100.00
9746;BME280;4912;50.836;12.958;2023-11-21T05:14:01;97231.63;;;9.20;100.00
9746;BME280;4912;50.836;12.958;2023-11-21T05:16:33;97234.09;;;9.18;100.00
9746;BME280;4912;50.836;12.958;2023-11-21T05:19:03;97239.06;;;9.29;100.00
9746;BME280;4912;50.836;12.958;2023-11-21T05:21:36;97245.72;;;9.37;100.00
9746;BME280;4912;50.836;12.958;2023-11-21T05:24:07;97253.63;;;9.29;100.00
9746;BME280;4912;50.836;12.958;2023-11-21T05:26:38;97253.34;;;9.27;100.00
9746;BME280;4912;50.836;12.958;2023-11-21T05:29:12;97248.38;;;9.17;100.00
9746;BME280;4912;50.836;12.958;2023-11-21T05:31:42;97253.31;;;9.13;100.00
9746;BME280;4912;50.836;12.958;2023-11-21T05:34:13;97251.28;;;9.13;100.00
9746;BME280;4912;50.836;12.958;2023-11-21T05:36:47;97254.09;;;9.28;100.00
9746;BME280;4912;50.836;12.958;2023-11-21T05:39:18;97260.56;;;9.25;100.00
9746;BME280;4912;50.836;12.958;2023-11-21T05:41:51;97259.25;;;9.35;100.00
9746;BME280;4912;50.836;12.958;2023-11-21T05:44:25;97259.94;;;9.44;100.00
9746;BME280;4912;50.836;12.958;2023-11-21T05:46:55;97255.06;;;9.39;100.00
9746;BME280;4912;50.836;12.958;2023-11-21T05:49:26;97256.97;;;9.33;100.00
9746;BME280;4912;50.836;12.958;2023-11-21T05:51:57;97260.44;;;9.19;100.00
9746;BME280;4912;50.836;12.958;2023-11-21T05:54:32;97266.03;;;9.10;100.00
9746;BME280;4912;50.836;12.958;2023-11-21T05:57:04;97265.63;;;9.02;100.00
9746;BME280;4912;50.836;12.958;2023-11-21T05:59:38;97262.06;;;9.11;100.00
9746;BME280;4912;50.836;12.958;2023-11-21T06:02:09;97261.69;;;9.18;100.00
9746;BME280;4912;50.836;12.958;2023-11-21T06:04:42;97267.78;;;9.22;100.00
9746;BME280;4912;50.836;12.958;2023-11-21T06:07:13;97271.47;;;9.19;100.00
9746;BME280;4912;50.836;12.958;2023-11-21T06:09:43;97263.41;;;9.16;100.00
9746;BME280;4912;50.836;12.958;2023-11-21T06:12:16;97271.97;;;9.18;100.00
9746;BME280;4912;50.836;12.958;2023-11-21T06:14:50;97276.44;;;9.15;100.00
9746;BME280;4912;50.836;12.958;2023-11-21T06:17:22;97279.13;;;9.24;100.00
9746;BME280;4912;50.836;12.958;2023-11-21T06:19:55;97284.47;;;9.28;100.00
9746;BME280;4912;50.836;12.958;2023-11-21T06:22:26;97289.75;;;9.17;100.00
9746;BME280;4912;50.836;12.958;2023-11-21T06:24:57;97295.09;;;9.20;100.00
9746;BME280;4912;50.836;12.958;2023-11-21T06:27:31;97293.88;;;9.21;100.00
9746;BME280;4912;50.836;12.958;2023-11-21T06:30:09;97299.81;;;9.05;100.00
9746;BME280;4912;50.836;12.958;2023-11-21T06:32:41;97305.78;;;9.03;100.00
9746;BME280;4912;50.836;12.958;2023-11-21T06:35:15;97301.25;;;9.15;100.00
9746;BME280;4912;50.836;12.958;2023-11-21T06:37:46;97305.78;;;9.27;100.00
9746;BME280;4912;50.836;12.958;2023-11-21T06:40:19;97312.75;;;9.37;100.00
9746;BME280;4912;50.836;12.958;2023-11-21T06:42:52;97311.06;;;9.40;100.00
9746;BME280;4912;50.836;12.958;2023-11-21T06:45:26;97314.69;;;9.46;100.00
9746;BME280;4912;50.836;12.958;2023-11-21T06:47:56;97312.03;;;9.52;100.00
9746;BME280;4912;50.836;12.958;2023-11-21T06:50:27;97313.09;;;9.54;100.00
9746;BME280;4912;50.836;12.958;2023-11-21T06:52:58;97310.50;;;9.51;100.00
9746;BME280;4912;50.836;12.958;2023-11-21T06:55:31;97315.00;;;9.48;100.00
9746;BME280;4912;50.836;12.958;2023-11-21T06:58:02;97320.38;;;9.42;100.00
9746;BME280;4912;50.836;12.958;2023-11-21T07:00:35;97320.53;;;9.24;100.00
9746;BME280;4912;50.836;12.958;2023-11-21T07:03:06;97316.13;;;9.18;100.00
9746;BME280;4912;50.836;12.958;2023-11-21T07:05:37;97314.75;;;9.13;100.00
9746;BME280;4912;50.836;12.958;2023-11-21T07:08:08;97314.38;;;9.06;100.00
9746;BME280;4912;50.836;12.958;2023-11-21T07:10:39;97314.72;;;8.98;100.00
9746;BME280;4912;50.836;12.958;2023-11-21T07:13:10;97320.66;;;9.06;100.00
9746;BME280;4912;50.836;12.958;2023-11-21T07:15:43;97322.47;;;9.09;100.00
9746;BME280;4912;50.836;12.958;2023-11-21T07:18:14;97325.44;;;9.20;100.00
9746;BME280;4912;50.836;12.958;2023-11-21T07:20:45;97330.50;;;9.22;100.00
9746;BME280;4912;50.836;12.958;2023-11-21T07:23:16;97333.81;;;9.11;100.00
9746;BME280;4912;50.836;12.958;2023-11-21T07:25:47;97340.47;;;9.19;100.00
9746;BME280;4912;50.836;12.958;2023-11-21T07:28:20;97337.69;;;9.28;100.00
9746;BME280;4912;50.836;12.958;2023-11-21T07:30:54;97333.72;;;9.20;100.00
9746;BME280;4912;50.836;12.958;2023-11-21T07:33:24;97342.53;;;9.10;100.00
9746;BME280;4912;50.836;12.958;2023-11-21T07:35:55;97337.97;;;9.07;100.00
9746;BME280;4912;50.836;12.958;2023-11-21T07:38:26;97349.38;;;8.90;100.00
9746;BME280;4912;50.836;12.958;2023-11-21T07:40:58;97345.84;;;8.99;100.00
9746;BME280;4912;50.836;12.958;2023-11-21T07:43:28;97347.63;;;9.02;100.00
9746;BME280;4912;50.836;12.958;2023-11-21T07:46:05;97352.13;;;8.99;100.00
9746;BME280;4912;50.836;12.958;2023-11-21T07:48:36;97356.66;;;9.12;100.00
9746;BME280;4912;50.836;12.958;2023-11-21T07:51:07;97353.78;;;9.06;100.00
9746;BME280;4912;50.836;12.958;2023-11-21T07:53:37;97359.22;;;9.15;100.00
9746;BME280;4912;50.836;12.958;2023-11-21T07:56:09;97358.13;;;9.22;100.00
9746;BME280;4912;50.836;12.958;2023-11-21T07:58:42;97369.81;;;9.17;100.00
9746;BME280;4912;50.836;12.958;2023-11-21T08:01:16;97366.28;;;9.16;100.00
9746;BME280;4912;50.836;12.958;2023-11-21T08:03:47;97368.09;;;9.19;100.00
9746;BME280;4912;50.836;12.958;2023-11-21T08:06:20;97369.81;;;9.17;100.00
9746;BME280;4912;50.836;12.958;2023-11-21T08:08:50;97368.50;;;9.27;100.00
9746;BME280;4912;50.836;12.958;2023-11-21T08:11:21;97376.91;;;9.32;100.00
9746;BME280;4912;50.836;12.958;2023-11-21T08:13:53;97372.63;;;9.31;100.00
9746;BME280;4912;50.836;12.958;2023-11-21T08:16:27;97373.22;;;9.35;100.00
9746;BME280;4912;50.836;12.958;2023-11-21T08:18:58;97378.75;;;9.35;100.00
9746;BME280;4912;50.836;12.958;2023-11-21T08:21:30;97373.78;;;9.39;100.00
9746;BME280;4912;50.836;12.958;2023-11-21T08:24:01;97378.09;;;9.40;100.00
9746;BME280;4912;50.836;12.958;2023-11-21T08:26:31;97378.97;;;9.47;100.00
9746;BME280;4912;50.836;12.958;2023-11-21T08:29:02;97376.78;;;9.51;100.00
9746;BME280;4912;50.836;12.958;2023-11-21T08:31:37;97373.72;;;9.49;100.00
9746;BME280;4912;50.836;12.958;2023-11-21T08:34:08;97384.50;;;9.47;100.00
9746;BME280;4912;50.836;12.958;2023-11-21T08:36:41;97385.72;;;9.45;100.00
9746;BME280;4912;50.836;12.958;2023-11-21T08:39:12;97385.16;;;9.41;100.00
9746;BME280;4912;50.836;12.958;2023-11-21T08:41:46;97382.19;;;9.45;100.00
9746;BME280;4912;50.836;12.958;2023-11-21T08:44:17;97382.84;;;9.40;100.00
9746;BME280;4912;50.836;12.958;2023-11-21T08:46:53;97385.50;;;9.34;100.00
9746;BME280;4912;50.836;12.958;2023-11-21T08:49:23;97383.72;;;9.22;100.00
9746;BME280;4912;50.836;12.958;2023-11-21T08:51:55;97385.84;;;9.27;100.00
9746;BME280;4912;50.836;12.958;2023-11-21T08:54:26;97395.31;;;9.35;100.00
9746;BME280;4912;50.836;12.958;2023-11-21T08:56:58;97386.06;;;9.38;100.00
9746;BME280;4912;50.836;12.958;2023-11-21T08:59:32;97386.31;;;9.50;100.00
9746;BME280;4912;50.836;12.958;2023-11-21T09:02:05;97388.06;;;9.62;100.00
9746;BME280;4912;50.836;12.958;2023-11-21T09:04:36;97399.41;;;9.64;100.00
9746;BME280;4912;50.836;12.958;2023-11-21T09:07:08;97395.13;;;9.63;100.00
9746;BME280;4912;50.836;12.958;2023-11-21T09:09:39;97398.19;;;9.65;100.00
9746;BME280;4912;50.836;12.958;2023-11-21T09:12:10;97398.94;;;9.65;100.00
9746;BME280;4912;50.836;12.958;2023-11-21T09:14:41;97405.22;;;9.66;100.00
9746;BME280;4912;50.836;12.958;2023-11-21T09:17:15;97400.22;;;9.55;100.00
9746;BME280;4912;50.836;12.958;2023-11-21T09:19:46;97402.53;;;9.57;100.00
9746;BME280;4912;50.836;12.958;2023-11-21T09:22:17;97403.81;;;9.47;100.00
9746;BME280;4912;50.836;12.958;2023-11-21T09:24:48;97410.09;;;9.47;100.00
9746;BME280;4912;50.836;12.958;2023-11-21T09:27:19;97412.38;;;9.49;100.00
9746;BME280;4912;50.836;12.958;2023-11-21T09:29:50;97417.63;;;9.47;100.00
9746;BME280;4912;50.836;12.958;2023-11-21T09:32:23;97416.28;;;9.42;100.00
9746;BME280;4912;50.836;12.958;2023-11-21T09:34:54;97420.38;;;9.47;100.00
9746;BME280;4912;50.836;12.958;2023-11-21T09:37:27;97415.56;;;9.56;100.00
9746;BME280;4912;50.836;12.958;2023-11-21T09:39:58;97424.97;;;9.50;100.00
9746;BME280;4912;50.836;12.958;2023-11-21T09:42:35;97419.94;;;9.48;100.00
9746;BME280;4912;50.836;12.958;2023-11-21T09:45:17;97426.19;;;9.49;100.00
9746;BME280;4912;50.836;12.958;2023-11-21T09:47:54;97422.50;;;9.52;100.00
9746;BME280;4912;50.836;12.958;2023-11-21T09:50:26;97434.72;;;9.60;100.00
9746;BME280;4912;50.836;12.958;2023-11-21T09:53:09;97428.50;;;9.50;100.00
9746;BME280;4912;50.836;12.958;2023-11-21T09:55:44;97424.97;;;9.50;100.00
9746;BME280;4912;50.836;12.958;2023-11-21T09:58:19;97428.22;;;9.48;100.00
9746;BME280;4912;50.836;12.958;2023-11-21T10:00:53;97434.97;;;9.47;100.00
9746;BME280;4912;50.836;12.958;2023-11-21T10:03:28;97435.25;;;9.49;100.00
9746;BME280;4912;50.836;12.958;2023-11-21T10:06:00;97437.66;;;9.56;100.00
9746;BME280;4912;50.836;12.958;2023-11-21T10:08:33;97440.88;;;9.55;100.00
9746;BME280;4912;50.836;12.958;2023-11-21T10:11:17;97435.34;;;9.55;100.00
9746;BME280;4912;50.836;12.958;2023-11-21T10:13:52;97443.19;;;9.56;100.00
9746;BME280;4912;50.836;12.958;2023-11-21T10:16:25;97438.00;;;9.49;100.00
9746;BME280;4912;50.836;12.958;2023-11-21T10:18:59;97435.44;;;9.45;100.00
9746;BME280;4912;50.836;12.958;2023-11-21T10:21:38;97440.38;;;9.41;100.00
9746;BME280;4912;50.836;12.958;2023-11-21T10:24:09;97439.88;;;9.43;100.00
9746;BME280;4912;50.836;12.958;2023-11-21T10:26:40;97438.84;;;9.40;100.00
9746;BME280;4912;50.836;12.958;2023-11-21T10:29:20;97440.38;;;9.41;100.00
9746;BME280;4912;50.836;12.958;2023-11-21T10:31:51;97444.63;;;9.42;100.00
9746;BME280;4912;50.836;12.958;2023-11-21T10:34:27;97441.28;;;9.38;100.00
9746;BME280;4912;50.836;12.958;2023-11-21T10:36:58;97447.56;;;9.39;100.00
9746;BME280;4912;50.836;12.958;2023-11-21T10:39:29;97446.81;;;9.38;100.00
9746;BME280;4912;50.836;12.958;2023-11-21T10:41:59;97446.53;;;9.36;100.00
9746;BME280;4912;50.836;12.958;2023-11-21T10:44:30;97436.53;;;9.39;100.00
9746;BME280;4912;50.836;12.958;2023-11-21T10:47:01;97452.00;;;9.45;100.00
9746;BME280;4912;50.836;12.958;2023-11-21T10:49:37;97447.91;;;9.32;100.00
9746;BME280;4912;50.836;12.958;2023-11-21T10:52:08;97457.56;;;9.36;100.00
9746;BME280;4912;50.836;12.958;2023-11-21T10:54:47;97463.03;;;9.45;100.00
9746;BME280;4912;50.836;12.958;2023-11-21T10:57:18;97467.97;;;9.41;100.00
9746;BME280;4912;50.836;12.958;2023-11-21T10:59:51;97467.66;;;9.39;100.00
9746;BME280;4912;50.836;12.958;2023-11-21T11:02:25;97476.91;;;9.36;100.00
9746;BME280;4912;50.836;12.958;2023-11-21T11:05:03;97482.84;;;9.44;100.00
9746;BME280;4912;50.836;12.958;2023-11-21T11:07:41;97482.19;;;9.49;100.00
9746;BME280;4912;50.836;12.958;2023-11-21T11:10:13;97483.91;;;9.47;100.00
9746;BME280;4912;50.836;12.958;2023-11-21T11:12:45;97490.97;;;9.48;100.00
9746;BME280;4912;50.836;12.958;2023-11-21T11:15:16;97490.47;;;9.49;100.00
9746;BME280;4912;50.836;12.958;2023-11-21T11:17:48;97488.19;;;9.48;100.00
9746;BME280;4912;50.836;12.958;2023-11-21T11:20:23;97497.53;;;9.50;100.00
9746;BME280;4912;50.836;12.958;2023-11-21T11:23:09;97493.06;;;9.53;100.00
9746;BME280;4912;50.836;12.958;2023-11-21T11:25:55;97488.72;;;9.61;100.00
9746;BME280;4912;50.836;12.958;2023-11-21T11:28:44;97499.75;;;9.61;100.00
9746;BME280;4912;50.836;12.958;2023-11-21T11:31:26;97501.75;;;9.60;100.00
9746;BME280;4912;50.836;12.958;2023-11-21T11:34:11;97500.25;;;9.59;100.00
9746;BME280;4912;50.836;12.958;2023-11-21T11:37:00;97503.03;;;9.59;100.00
9746;BME280;4912;50.836;12.958;2023-11-21T11:39:36;97506.06;;;9.61;100.00
9746;BME280;4912;50.836;12.958;2023-11-21T11:42:13;97511.75;;;9.58;100.00
9746;BME280;4912;50.836;12.958;2023-11-21T11:44:52;97512.06;;;9.60;100.00
9746;BME280;4912;50.836;12.958;2023-11-21T11:47:25;97512.22;;;9.56;100.00
9746;BME280;4912;50.836;12.958;2023-11-21T11:50:06;97506.75;;;9.47;100.00
9746;BME280;4912;50.836;12.958;2023-11-21T11:52:44;97512.63;;;9.40;100.00
9746;BME280;4912;50.836;12.958;2023-11-21T11:55:17;97511.09;;;9.39;100.00
9746;BME280;4912;50.836;12.958;2023-11-21T11:57:50;97513.06;;;9.38;100.00
9746;BME280;4912;50.836;12.958;2023-11-21T12:00:32;97518.59;;;9.38;100.00
9746;BME280;4912;50.836;12.958;2023-11-21T12:03:07;97518.59;;;9.38;100.00
9746;BME280;4912;50.836;12.958;2023-11-21T12:05:40;97519.38;;;9.39;100.00
9746;BME280;4912;50.836;12.958;2023-11-21T12:08:16;97528.88;;;9.38;100.00
9746;BME280;4912;50.836;12.958;2023-11-21T12:10:47;97528.41;;;9.39;100.00
9746;BME280;4912;50.836;12.958;2023-11-21T12:13:21;97528.88;;;9.38;100.00
9746;BME280;4912;50.836;12.958;2023-11-21T12:15:54;97528.88;;;9.38;100.00
9746;BME280;4912;50.836;12.958;2023-11-21T12:18:25;97532.88;;;9.37;100.00
9746;BME280;4912;50.836;12.958;2023-11-21T12:20:58;97536.88;;;9.36;100.00
9746;BME280;4912;50.836;12.958;2023-11-21T12:23:32;97537.66;;;9.36;100.00
9746;BME280;4912;50.836;12.958;2023-11-21T12:26:04;97551.72;;;9.38;100.00
9746;BME280;4912;50.836;12.958;2023-11-21T12:28:36;97552.53;;;9.30;100.00
9746;BME280;4912;50.836;12.958;2023-11-21T12:31:08;97554.22;;;9.36;100.00
9746;BME280;4912;50.836;12.958;2023-11-21T12:33:48;97560.06;;;9.29;100.00
9746;BME280;4912;50.836;12.958;2023-11-21T12:36:19;97558.84;;;9.30;100.00
9746;BME280;4912;50.836;12.958;2023-11-21T12:38:53;97560.19;;;9.35;100.00
9746;BME280;4912;50.836;12.958;2023-11-21T12:41:24;97554.22;;;9.36;100.00
9746;BME280;4912;50.836;12.958;2023-11-21T12:43:55;97568.59;;;9.40;100.00
9746;BME280;4912;50.836;12.958;2023-11-21T12:46:26;97565.25;;;9.36;100.00
9746;BME280;4912;50.836;12.958;2023-11-21T12:49:01;97568.31;;;9.38;100.00
9746;BME280;4912;50.836;12.958;2023-11-21T12:51:33;97569.25;;;9.35;100.00
9746;BME280;4912;50.836;12.958;2023-11-21T12:54:06;97578.44;;;9.41;100.00
9746;BME280;4912;50.836;12.958;2023-11-21T12:56:40;97570.59;;;9.40;100.00
9746;BME280;4912;50.836;12.958;2023-11-21T12:59:12;97568.00;;;9.36;100.00
9746;BME280;4912;50.836;12.958;2023-11-21T13:01:45;97577.03;;;9.37;100.00
9746;BME280;4912;50.836;12.958;2023-11-21T13:04:18;97585.81;;;9.35;100.00
9746;BME280;4912;50.836;12.958;2023-11-21T13:06:49;97582.09;;;9.38;100.00
9746;BME280;4912;50.836;12.958;2023-11-21T13:09:23;97585.63;;;9.39;100.00
9746;BME280;4912;50.836;12.958;2023-11-21T13:11:59;97585.81;;;9.35;100.00
9746;BME280;4912;50.836;12.958;2023-11-21T13:14:34;97587.63;;;9.38;100.00
9746;BME280;4912;50.836;12.958;2023-11-21T13:17:04;97592.56;;;9.34;100.00
9746;BME280;4912;50.836;12.958;2023-11-21T13:19:37;97595.00;;;9.32;100.00
9746;BME280;4912;50.836;12.958;2023-11-21T13:22:09;97595.47;;;9.31;100.00
9746;BME280;4912;50.836;12.958;2023-11-21T13:24:43;97601.47;;;9.20;100.00
9746;BME280;4912;50.836;12.958;2023-11-21T13:27:15;97603.63;;;9.16;100.00
9746;BME280;4912;50.836;12.958;2023-11-21T13:29:46;97611.47;;;9.09;100.00
9746;BME280;4912;50.836;12.958;2023-11-21T13:32:17;97610.41;;;8.97;100.00
9746;BME280;4912;50.836;12.958;2023-11-21T13:34:51;97611.03;;;8.92;100.00
9746;BME280;4912;50.836;12.958;2023-11-21T13:37:22;97610.72;;;8.90;100.00
9746;BME280;4912;50.836;12.958;2023-11-21T13:40:01;97626.22;;;8.87;100.00
9746;BME280;4912;50.836;12.958;2023-11-21T13:42:41;97625.75;;;8.89;100.00
9746;BME280;4912;50.836;12.958;2023-11-21T13:45:21;97629.56;;;8.91;100.00